createdAt,value
2018-07-19T00:00:46.130Z,10.93
2018-07-19T00:03:33.590Z,10.70
2018-07-19T00:06:11.542Z,8.27
2018-07-19T00:08:48.894Z,7.47
2018-07-19T00:11:22.570Z,7.40
2018-07-19T00:13:55.595Z,6.60
2018-07-19T00:16:29.162Z,6.53
2018-07-19T00:19:02.881Z,6.63
2018-07-19T00:21:37.285Z,6.50
2018-07-19T00:24:10.006Z,6.10
2018-07-19T00:26:42.870Z,6.00
2018-07-19T00:29:16.033Z,6.23
2018-07-19T00:31:48.437Z,6.50
2018-07-19T00:34:21.035Z,6.60
2018-07-19T00:36:53.019Z,6.27
2018-07-19T00:39:25.928Z,5.60
2018-07-19T00:41:58.917Z,6.73
2018-07-19T00:44:31.173Z,6.60
2018-07-19T00:47:04.668Z,6.37
2018-07-19T00:49:37.060Z,6.37
2018-07-19T00:52:09.591Z,7.00
2018-07-19T00:54:42.198Z,6.90
2018-07-19T00:57:15.395Z,7.17
2018-07-19T00:59:47.870Z,6.83
2018-07-19T01:02:20.757Z,6.93
2018-07-19T01:04:52.900Z,7.33
2018-07-19T01:07:24.895Z,7.00
2018-07-19T01:09:58.350Z,7.30
2018-07-19T01:12:30.547Z,7.67
2018-07-19T01:15:03.425Z,7.27
2018-07-19T01:17:36.782Z,7.20
2018-07-19T01:20:09.971Z,7.23
2018-07-19T01:22:43.027Z,7.00
2018-07-19T01:25:15.495Z,6.47
2018-07-19T01:27:48.512Z,6.87
2018-07-19T01:30:20.742Z,7.00
2018-07-19T01:32:53.385Z,7.00
2018-07-19T01:35:27.383Z,7.13
2018-07-19T01:38:01.869Z,6.57
2018-07-19T01:40:34.290Z,7.13
2018-07-19T01:43:06.380Z,6.10
2018-07-19T01:45:39.721Z,6.17
2018-07-19T01:48:12.578Z,6.60
2018-07-19T01:50:45.418Z,6.47
2018-07-19T01:53:17.685Z,6.70
2018-07-19T01:55:49.805Z,5.97
2018-07-19T01:58:22.463Z,5.90
2018-07-19T02:00:55.883Z,7.23
2018-07-19T02:03:28.279Z,6.40
2018-07-19T02:06:02.222Z,6.60
2018-07-19T02:08:35.519Z,6.80
2018-07-19T02:11:07.629Z,7.40
2018-07-19T02:13:40.133Z,7.10
2018-07-19T02:16:12.498Z,7.43
2018-07-19T02:18:47.335Z,7.17
2018-07-19T02:21:20.784Z,7.67
2018-07-19T02:23:54.313Z,6.77
2018-07-19T02:26:27.084Z,7.00
2018-07-19T02:28:59.235Z,7.60
2018-07-19T02:31:33.143Z,7.17
2018-07-19T02:34:05.874Z,7.07
2018-07-19T02:36:38.182Z,7.23
2018-07-19T02:39:12.565Z,7.37
2018-07-19T02:41:45.406Z,7.43
2018-07-19T02:44:20.513Z,6.60
2018-07-19T02:46:52.717Z,6.90
2018-07-19T02:49:25.884Z,7.70
2018-07-19T02:51:57.736Z,8.23
2018-07-19T02:54:31.819Z,7.50
2018-07-19T02:57:04.314Z,7.30
2018-07-19T02:59:36.915Z,8.00
2018-07-19T03:02:10.330Z,7.30
2018-07-19T03:04:43.174Z,7.23
2018-07-19T03:07:15.569Z,7.30
2018-07-19T03:09:47.561Z,7.23
2018-07-19T03:12:19.986Z,7.13
2018-07-19T03:14:52.013Z,6.83
2018-07-19T03:17:24.433Z,7.17
2018-07-19T03:19:57.181Z,7.17
2018-07-19T03:22:30.405Z,7.70
2018-07-19T03:25:02.865Z,7.40
2018-07-19T03:27:36.037Z,7.63
2018-07-19T03:30:08.336Z,7.67
2018-07-19T03:32:42.023Z,7.83
2018-07-19T03:35:13.597Z,7.60
2018-07-19T03:37:45.069Z,8.60
2018-07-19T03:40:16.942Z,8.07
2018-07-19T03:42:49.605Z,7.87
2018-07-19T03:45:23.304Z,7.80
2018-07-19T03:47:55.479Z,7.63
2018-07-19T03:50:38.055Z,8.57
2018-07-19T03:53:10.191Z,7.47
2018-07-19T03:55:41.118Z,8.40
2018-07-19T03:58:13.168Z,8.17
2018-07-19T04:00:45.144Z,8.47
2018-07-19T04:03:17.494Z,7.80
2018-07-19T04:05:50.903Z,7.50
2018-07-19T04:08:23.258Z,7.47
2018-07-19T04:10:57.024Z,7.97
2018-07-19T04:13:30.023Z,7.10
2018-07-19T04:16:03.739Z,7.10
2018-07-19T04:18:37.104Z,7.60
2018-07-19T04:21:10.143Z,7.30
2018-07-19T04:23:42.560Z,6.63
2018-07-19T04:26:15.235Z,7.20
2018-07-19T04:28:47.705Z,7.00
2018-07-19T04:31:20.374Z,6.87
2018-07-19T04:33:53.570Z,6.47
2018-07-19T04:36:26.112Z,7.10
2018-07-19T04:38:58.185Z,6.90
2018-07-19T04:41:40.732Z,6.30
2018-07-19T04:44:12.689Z,6.63
2018-07-19T04:46:55.715Z,6.53
2018-07-19T04:52:09.250Z,6.77
2018-07-19T04:54:41.164Z,6.60
2018-07-19T04:57:12.495Z,6.47
2018-07-19T04:59:45.747Z,6.20
2018-07-19T05:02:16.323Z,6.37
2018-07-19T05:04:56.837Z,5.73
2018-07-19T05:07:28.819Z,6.00
2018-07-19T05:10:01.012Z,5.93
2018-07-19T05:12:33.999Z,5.67
2018-07-19T05:15:06.115Z,6.17
2018-07-19T05:17:40.981Z,5.70
2018-07-19T05:20:11.942Z,6.20
2018-07-19T05:22:45.504Z,5.87
2018-07-19T05:25:18.483Z,5.80
2018-07-19T05:27:50.801Z,5.47
2018-07-19T05:30:22.798Z,5.83
2018-07-19T05:32:54.837Z,5.27
2018-07-19T05:35:25.153Z,5.93
2018-07-19T05:37:57.179Z,5.67
2018-07-19T05:40:28.824Z,5.80
2018-07-19T05:43:01.551Z,5.90
2018-07-19T05:45:33.578Z,5.40
2018-07-19T05:48:02.759Z,5.30
2018-07-19T05:50:32.289Z,5.00
2018-07-19T05:53:01.467Z,5.00
2018-07-19T05:55:30.721Z,5.50
2018-07-19T05:58:00.109Z,4.70
2018-07-19T06:00:31.627Z,4.80
2018-07-19T06:03:00.909Z,4.63
2018-07-19T06:05:29.779Z,4.40
2018-07-19T06:07:58.561Z,4.80
2018-07-19T06:10:27.401Z,5.07
2018-07-19T06:12:56.127Z,5.43
2018-07-19T06:15:24.935Z,4.67
2018-07-19T06:17:53.275Z,4.80
2018-07-19T06:20:24.779Z,4.33
2018-07-19T06:22:53.627Z,4.20
2018-07-19T06:25:22.702Z,4.80
2018-07-19T06:27:55.744Z,4.50
2018-07-19T06:30:24.672Z,4.17
2018-07-19T06:32:53.836Z,4.43
2018-07-19T06:35:23.767Z,4.20
2018-07-19T06:37:52.601Z,5.67
2018-07-19T06:40:21.479Z,4.43
2018-07-19T06:42:51.148Z,4.33
2018-07-19T06:45:19.981Z,4.30
2018-07-19T06:47:53.040Z,4.67
2018-07-19T06:50:21.910Z,4.20
2018-07-19T06:52:56.633Z,4.10
2018-07-19T06:55:25.727Z,4.50
2018-07-19T06:57:55.771Z,4.37
2018-07-19T07:00:28.795Z,5.27
2018-07-19T07:02:58.357Z,4.33
2018-07-19T07:05:27.433Z,4.40
2018-07-19T07:07:56.441Z,4.50
2018-07-19T07:10:25.942Z,4.17
2018-07-19T07:12:55.896Z,4.07
2018-07-19T07:15:25.067Z,4.07
2018-07-19T07:17:53.832Z,3.93
2018-07-19T07:20:23.012Z,3.57
2018-07-19T07:22:53.016Z,3.70
2018-07-19T07:25:22.336Z,3.60
2018-07-19T07:27:52.229Z,3.83
2018-07-19T07:30:21.132Z,3.93
2018-07-19T07:32:52.079Z,3.57
2018-07-19T07:35:20.921Z,3.50
2018-07-19T07:37:50.719Z,3.30
2018-07-19T07:40:19.551Z,3.20
2018-07-19T07:42:47.873Z,2.90
2018-07-19T07:45:16.691Z,3.63
2018-07-19T07:47:45.487Z,3.70
2018-07-19T07:50:13.902Z,3.13
2018-07-19T07:52:42.787Z,2.83
2018-07-19T07:55:11.705Z,3.40
2018-07-19T07:57:40.641Z,3.13
2018-07-19T08:00:09.677Z,3.10
2018-07-19T08:02:38.515Z,3.13
2018-07-19T08:05:07.405Z,3.30
2018-07-19T08:07:36.606Z,3.30
2018-07-19T08:10:05.593Z,3.23
2018-07-19T08:12:37.473Z,2.90
2018-07-19T08:15:06.463Z,3.43
2018-07-19T08:17:36.015Z,3.50
2018-07-19T08:20:04.995Z,3.37
2018-07-19T08:22:38.354Z,3.23
2018-07-19T08:25:07.875Z,3.37
2018-07-19T08:27:36.836Z,3.80
2018-07-19T08:30:05.268Z,3.60
2018-07-19T08:32:34.175Z,3.10
2018-07-19T08:35:06.561Z,4.00
2018-07-19T08:37:35.298Z,3.60
2018-07-19T08:40:05.424Z,3.63
2018-07-19T08:42:34.295Z,3.73
2018-07-19T08:45:06.229Z,3.80
2018-07-19T08:47:35.082Z,3.70
2018-07-19T08:50:03.928Z,3.80
2018-07-19T08:52:32.689Z,4.10
2018-07-19T08:55:01.622Z,4.30
2018-07-19T08:57:30.414Z,3.80
2018-07-19T08:59:59.451Z,3.43
2018-07-19T09:02:27.877Z,3.90
2018-07-19T09:07:49.456Z,3.80
2018-07-19T09:10:18.408Z,3.80
2018-07-19T09:12:51.149Z,3.83
2018-07-19T09:15:21.108Z,4.43
2018-07-19T09:17:49.965Z,3.83
2018-07-19T09:20:18.755Z,3.83
2018-07-19T09:22:47.594Z,3.73
2018-07-19T09:25:16.607Z,4.37
2018-07-19T09:27:46.453Z,3.50
2018-07-19T09:30:19.947Z,3.50
2018-07-19T09:32:48.892Z,3.70
2018-07-19T09:35:18.262Z,4.15
2018-07-19T09:37:50.822Z,3.83
2018-07-19T09:40:19.596Z,4.42
2018-07-19T09:42:49.046Z,3.98
2018-07-19T09:45:18.417Z,3.52
2018-07-19T09:47:47.532Z,4.08
2018-07-19T09:50:16.354Z,3.62
2018-07-19T09:52:45.155Z,3.50
2018-07-19T09:55:14.057Z,3.62
2018-07-19T09:57:50.437Z,3.35
2018-07-19T10:00:24.432Z,3.47
2018-07-19T10:02:53.216Z,3.40
2018-07-19T10:05:22.349Z,3.27
2018-07-19T10:07:51.736Z,2.95
2018-07-19T10:10:20.452Z,3.25
2018-07-19T10:12:49.297Z,2.87
2018-07-19T10:15:18.085Z,3.60
2018-07-19T10:17:46.835Z,3.10
2018-07-19T10:20:17.654Z,3.50
2018-07-19T10:22:46.523Z,3.55
2018-07-19T10:25:15.418Z,2.92
2018-07-19T10:27:44.713Z,3.60
2018-07-19T10:30:17.426Z,3.55
2018-07-19T10:32:46.372Z,3.52
2018-07-19T10:35:15.243Z,3.33
2018-07-19T10:37:44.112Z,3.40
2018-07-19T10:40:12.924Z,3.25
2018-07-19T10:42:41.721Z,3.52
2018-07-19T10:45:10.603Z,3.30
2018-07-19T10:47:39.497Z,3.70
2018-07-19T10:50:08.217Z,3.55
2018-07-19T10:52:37.036Z,4.05
2018-07-19T10:55:06.005Z,3.50
2018-07-19T10:57:34.697Z,3.92
2018-07-19T11:00:03.502Z,3.50
2018-07-19T11:02:32.427Z,3.67
2018-07-19T11:05:02.312Z,3.65
2018-07-19T11:07:31.052Z,3.83
2018-07-19T11:10:01.092Z,3.35
2018-07-19T11:12:29.825Z,3.37
2018-07-19T11:14:58.563Z,4.17
2018-07-19T11:17:27.319Z,3.58
2018-07-19T11:19:56.033Z,4.55
2018-07-19T11:22:24.991Z,4.08
2018-07-19T11:24:53.782Z,4.05
2018-07-19T11:27:23.583Z,3.52
2018-07-19T11:29:52.355Z,3.83
2018-07-19T11:32:21.064Z,3.83
2018-07-19T11:34:50.066Z,3.92
2018-07-19T11:37:20.115Z,3.75
2018-07-19T11:39:49.328Z,3.60
2018-07-19T11:42:19.095Z,3.70
2018-07-19T11:44:47.988Z,3.17
2018-07-19T11:47:16.657Z,4.03
2018-07-19T11:49:45.460Z,3.52
2018-07-19T11:52:14.323Z,4.67
2018-07-19T11:54:43.058Z,3.75
2018-07-19T11:57:11.967Z,3.80
2018-07-19T11:59:40.708Z,3.67
2018-07-19T12:02:09.872Z,3.42
2018-07-19T12:04:38.623Z,3.52
2018-07-19T12:07:08.381Z,3.60
2018-07-19T12:09:41.272Z,3.90
2018-07-19T12:12:10.414Z,3.45
2018-07-19T12:14:39.655Z,3.60
2018-07-19T12:17:09.056Z,3.60
2018-07-19T12:19:37.911Z,3.58
2018-07-19T12:22:07.099Z,3.58
2018-07-19T12:24:35.754Z,4.00
2018-07-19T12:27:06.914Z,3.98
2018-07-19T12:29:35.844Z,3.52
2018-07-19T12:32:08.653Z,4.37
2018-07-19T12:34:37.321Z,3.27
2018-07-19T12:37:07.465Z,3.98
2018-07-19T12:39:36.166Z,3.92
2018-07-19T12:42:06.555Z,4.00
2018-07-19T12:44:35.433Z,3.67
2018-07-19T12:47:05.195Z,3.10
2018-07-19T12:49:34.123Z,3.60
2018-07-19T12:52:04.598Z,3.70
2018-07-19T12:54:34.051Z,3.40
2018-07-19T12:57:02.969Z,3.52
2018-07-19T12:59:31.783Z,3.58
2018-07-19T13:02:02.680Z,3.40
2018-07-19T13:04:31.800Z,3.60
2018-07-19T13:07:00.655Z,3.85
2018-07-19T13:09:29.693Z,10.05
2018-07-19T13:12:04.983Z,3.27
2018-07-19T13:14:34.966Z,3.47
2018-07-19T13:17:17.628Z,4.08
2018-07-19T13:19:47.326Z,3.90
2018-07-19T13:22:16.669Z,3.62
2018-07-19T13:24:45.726Z,3.90
2018-07-19T13:27:14.558Z,3.92
2018-07-19T13:29:43.330Z,3.90
2018-07-19T13:32:16.696Z,3.80
2018-07-19T13:34:46.233Z,3.65
2018-07-19T13:37:14.932Z,3.58
2018-07-19T13:39:44.393Z,3.60
2018-07-19T13:42:13.242Z,3.77
2018-07-19T13:44:42.195Z,3.62
2018-07-19T13:47:11.953Z,3.87
2018-07-19T13:49:41.291Z,3.90
2018-07-19T13:52:13.586Z,3.80
2018-07-19T13:54:47.387Z,4.03
2018-07-19T13:57:17.354Z,3.75
2018-07-19T13:59:50.234Z,3.65
2018-07-19T14:02:19.644Z,3.58
2018-07-19T14:04:53.101Z,3.52
2018-07-19T14:07:21.871Z,3.50
2018-07-19T14:09:50.669Z,3.67
2018-07-19T14:12:31.667Z,4.12
2018-07-19T14:15:00.591Z,3.80
2018-07-19T14:17:35.315Z,3.72
2018-07-19T14:20:04.864Z,3.80
2018-07-19T14:22:33.752Z,3.35
2018-07-19T14:25:05.104Z,3.80
2018-07-19T14:27:34.706Z,3.70
2018-07-19T14:30:14.654Z,3.92
2018-07-19T14:32:43.373Z,3.90
2018-07-19T14:35:13.901Z,3.45
2018-07-19T14:37:44.368Z,4.05
2018-07-19T14:40:14.076Z,3.72
2018-07-19T14:42:49.163Z,4.75
2018-07-19T14:45:19.807Z,3.80
2018-07-19T14:47:48.681Z,3.95
2018-07-19T14:50:17.615Z,3.95
2018-07-19T14:52:46.559Z,4.40
2018-07-19T14:55:23.576Z,3.83
2018-07-19T14:57:52.360Z,3.95
2018-07-19T15:00:21.173Z,3.90
2018-07-19T15:02:50.048Z,4.10
2018-07-19T15:05:20.686Z,3.80
2018-07-19T15:07:49.440Z,4.00
2018-07-19T15:10:18.324Z,3.87
2018-07-19T15:12:47.071Z,3.87
2018-07-19T15:15:16.654Z,3.83
2018-07-19T15:17:46.644Z,4.08
2018-07-19T15:20:16.340Z,3.95
2018-07-19T15:22:52.136Z,4.20
2018-07-19T15:25:21.026Z,3.85
2018-07-19T15:27:55.645Z,4.20
2018-07-19T15:30:24.665Z,4.00
2018-07-19T15:32:56.404Z,4.30
2018-07-19T15:35:29.566Z,4.37
2018-07-19T15:37:58.414Z,4.00
2018-07-19T15:40:29.175Z,4.17
2018-07-19T15:43:01.893Z,4.47
2018-07-19T15:45:31.057Z,4.15
2018-07-19T15:47:59.915Z,4.53
2018-07-19T15:50:28.805Z,4.05
2018-07-19T15:52:57.580Z,4.30
2018-07-19T15:55:26.644Z,4.70
2018-07-19T15:57:55.598Z,5.00
2018-07-19T16:00:25.146Z,4.15
2018-07-19T16:02:55.263Z,4.62
2018-07-19T16:05:24.201Z,3.90
2018-07-19T16:07:55.065Z,3.90
2018-07-19T16:10:23.829Z,4.28
2018-07-19T16:12:52.545Z,4.28
2018-07-19T16:15:22.885Z,4.20
2018-07-19T16:17:53.113Z,4.05
2018-07-19T16:20:22.010Z,4.40
2018-07-19T16:22:52.559Z,4.33
2018-07-19T16:25:22.426Z,4.47
2018-07-19T16:27:52.034Z,4.15
2018-07-19T16:30:21.811Z,4.90
2018-07-19T16:32:50.696Z,4.10
2018-07-19T16:35:22.958Z,4.65
2018-07-19T16:37:55.189Z,4.37
2018-07-19T16:40:29.865Z,4.87
2018-07-19T16:43:04.059Z,4.03
2018-07-19T16:45:37.373Z,4.30
2018-07-19T16:48:11.397Z,4.47
2018-07-19T16:50:46.214Z,4.70
2018-07-19T16:53:38.824Z,4.60
2018-07-19T16:56:10.209Z,4.45
2018-07-19T16:58:48.217Z,4.35
2018-07-19T17:01:23.412Z,4.40
2018-07-19T17:03:56.898Z,4.85
2018-07-19T17:06:36.586Z,4.90
2018-07-19T17:09:12.292Z,4.77
2018-07-19T17:11:49.542Z,4.58
2018-07-19T17:14:25.626Z,4.22
2018-07-19T17:16:56.485Z,4.65
2018-07-19T17:19:26.766Z,4.60
2018-07-19T17:21:58.248Z,4.27
2018-07-19T17:24:32.491Z,4.03
2018-07-19T17:27:06.501Z,4.45
2018-07-19T17:29:38.188Z,4.58
2018-07-19T17:32:13.319Z,4.65
2018-07-19T17:34:49.004Z,4.53
2018-07-19T17:37:38.842Z,4.25
2018-07-19T17:40:34.089Z,4.58
2018-07-19T17:43:08.883Z,4.03
2018-07-19T17:45:42.224Z,4.40
2018-07-19T17:48:27.292Z,4.33
2018-07-19T17:50:57.160Z,4.45
2018-07-19T17:53:28.676Z,4.78
2018-07-19T17:55:57.966Z,4.40
2018-07-19T17:58:30.831Z,4.75
2018-07-19T18:01:00.629Z,4.50
2018-07-19T18:03:30.468Z,4.60
2018-07-19T18:06:01.286Z,4.80
2018-07-19T18:08:30.030Z,4.70
2018-07-19T18:11:05.226Z,4.53
2018-07-19T18:13:35.496Z,4.58
2018-07-19T18:16:08.501Z,4.70
2018-07-19T18:18:39.475Z,5.58
2018-07-19T18:21:12.262Z,5.75
2018-07-19T18:23:41.987Z,4.72
2018-07-19T18:26:11.804Z,4.80
2018-07-19T18:28:44.946Z,4.65
2018-07-19T18:31:16.076Z,4.75
2018-07-19T18:33:52.926Z,4.75
2018-07-19T18:36:24.217Z,4.53
2018-07-19T18:38:57.354Z,4.83
2018-07-19T18:41:30.569Z,4.75
2018-07-19T18:44:04.683Z,5.35
2018-07-19T18:46:37.909Z,4.23
2018-07-19T18:49:17.005Z,4.67
2018-07-19T18:51:55.234Z,5.37
2018-07-19T18:54:27.973Z,4.60
2018-07-19T18:57:01.090Z,4.50
2018-07-19T18:59:36.602Z,4.47
2018-07-19T19:02:10.457Z,5.67
2018-07-19T19:04:53.736Z,4.93
2018-07-19T19:07:24.888Z,5.10
2018-07-19T19:10:16.441Z,4.60
2018-07-19T19:13:00.084Z,4.43
2018-07-19T19:15:33.088Z,5.20
2018-07-19T19:18:03.654Z,4.67
2018-07-19T19:20:34.400Z,4.53
2018-07-19T19:23:04.972Z,4.77
2018-07-19T19:25:36.732Z,4.60
2018-07-19T19:28:06.725Z,4.47
2018-07-19T19:30:37.379Z,5.37
2018-07-19T19:33:07.763Z,5.17
2018-07-19T19:35:37.574Z,5.07
2018-07-19T19:38:08.647Z,5.00
2018-07-19T19:40:39.428Z,4.67
2018-07-19T19:43:10.136Z,4.93
2018-07-19T19:45:42.119Z,5.60
2018-07-19T19:48:12.601Z,5.20
2018-07-19T19:50:43.241Z,4.80
2018-07-19T19:53:14.252Z,5.37
2018-07-19T19:55:45.424Z,5.27
2018-07-19T19:58:15.301Z,5.10
2018-07-19T20:00:46.327Z,5.60
2018-07-19T20:03:22.868Z,5.30
2018-07-19T20:05:53.877Z,5.53
2018-07-19T20:08:28.179Z,5.70
2018-07-19T20:11:08.188Z,6.07
2018-07-19T20:13:40.923Z,5.53
2018-07-19T20:16:21.699Z,5.30
2018-07-19T20:18:57.490Z,6.17
2018-07-19T20:21:35.916Z,5.43
2018-07-19T20:24:15.557Z,5.33
2018-07-19T20:27:59.770Z,5.57
2018-07-19T20:30:42.263Z,5.60
2018-07-19T20:33:27.290Z,5.20
2018-07-19T20:36:00.434Z,5.53
2018-07-19T20:38:36.369Z,4.90
2018-07-19T20:41:07.431Z,5.47
2018-07-19T20:43:43.916Z,5.43
2018-07-19T20:46:14.645Z,5.40
2018-07-19T20:48:45.888Z,5.40
2018-07-19T20:51:16.046Z,4.53
2018-07-19T20:53:46.839Z,4.30
2018-07-19T20:56:17.778Z,4.60
2018-07-19T20:58:48.131Z,4.13
2018-07-19T21:01:29.709Z,4.00
2018-07-19T21:04:01.399Z,3.90
2018-07-19T21:06:34.582Z,4.30
2018-07-19T21:09:11.097Z,3.87
2018-07-19T21:11:44.003Z,4.27
2018-07-19T21:14:15.616Z,3.93
2018-07-19T21:16:46.747Z,3.73
2018-07-19T21:19:16.215Z,3.87
2018-07-19T21:21:52.903Z,3.80
2018-07-19T21:24:23.181Z,3.73
2018-07-19T21:26:53.595Z,4.07
2018-07-19T21:29:23.338Z,3.83
2018-07-19T21:31:54.125Z,3.73
2018-07-19T21:34:24.401Z,3.60
2018-07-19T21:36:54.377Z,3.57
2018-07-19T21:39:24.583Z,3.93
2018-07-19T21:41:55.010Z,4.07
2018-07-19T21:44:26.097Z,3.73
2018-07-19T21:46:56.508Z,4.17
2018-07-19T21:49:25.840Z,3.57
2018-07-19T21:51:56.473Z,3.63
2018-07-19T21:54:26.412Z,3.80
2018-07-19T21:57:03.944Z,3.70
2018-07-19T21:59:34.502Z,3.70
2018-07-19T22:02:05.422Z,3.43
2018-07-19T22:04:35.634Z,3.43
2018-07-19T22:07:06.400Z,3.30
2018-07-19T22:09:36.822Z,3.17
2018-07-19T22:12:07.695Z,3.27
2018-07-19T22:14:38.243Z,2.97
2018-07-19T22:17:08.537Z,3.33
2018-07-19T22:19:38.432Z,2.90
2018-07-19T22:22:07.741Z,3.40
2018-07-19T22:24:38.717Z,2.90
2018-07-19T22:27:09.197Z,3.17
2018-07-19T22:29:39.767Z,3.03
2018-07-19T22:32:10.507Z,2.90
2018-07-19T22:34:41.273Z,2.90
2018-07-19T22:37:12.014Z,2.60
2018-07-19T22:39:42.300Z,3.30
2018-07-19T22:42:26.474Z,2.90
2018-07-19T22:44:56.862Z,3.20
2018-07-19T22:47:26.895Z,2.90
2018-07-19T22:49:59.237Z,2.67
2018-07-19T22:52:30.879Z,3.50
2018-07-19T22:55:01.692Z,2.90
2018-07-19T22:57:31.906Z,3.10
2018-07-19T23:00:02.301Z,2.80
2018-07-19T23:02:32.008Z,3.00
2018-07-19T23:05:02.330Z,2.70
2018-07-19T23:07:33.146Z,3.23
2018-07-19T23:10:03.581Z,3.10
2018-07-19T23:12:35.999Z,3.40
2018-07-19T23:15:06.570Z,2.70
2018-07-19T23:17:37.857Z,3.30
2018-07-19T23:20:08.692Z,2.93
2018-07-19T23:22:40.090Z,2.93
2018-07-19T23:25:14.877Z,3.27
2018-07-19T23:27:45.885Z,3.20
2018-07-19T23:30:16.169Z,3.20
2018-07-19T23:32:52.716Z,3.13
2018-07-19T23:35:37.916Z,2.97
2018-07-19T23:38:13.389Z,3.10
2018-07-19T23:40:46.340Z,3.23
2018-07-19T23:43:21.573Z,3.50
2018-07-19T23:46:03.821Z,3.37
2018-07-19T23:48:35.111Z,3.10
2018-07-19T23:51:06.436Z,2.90
2018-07-19T23:53:38.016Z,3.00
2018-07-19T23:56:09.364Z,2.87
2018-07-19T23:58:40.965Z,3.27
